Portada
METAR-TAF:

METAR-TAF

Aeroports :

Gwadar, Pakistan

latitud: 25-13-59N, longitud: 062-19-46E, altitud: 29 m

Observació

L'informe es va fer fa 14 hores i 33 minuts, a les 08:00 UTC
Vent 6 kt del Sud
Temperatura 32°C
Humitat 43%
Pressió 1013 hPa
Visibilitat: 6000 m

METAR: OPGD 210800Z 18006KT 6000 FAIR NSC 32/18 Q1013

Hora: 03:33 (22:33 UTC)

Pronòstic

L'informe es va fer fa 7 hores i 3 minuts, a les 15:30 UTC
Pronòstic vàlid del 21 a les 18 UTC al 22 a les 18 UTC
Vent 7 kt del Sud-Oest
Visibilitat: 4000 m
Temporalment
l' 22 a les 00 UTC al 22 a les 04 UTC
Vent 2 kt amb direcció variable
Visibilitat: 2000 m
Núvols disperses a una alçada de 2000 ft
boirina
A partir de les 22 a les 0600 UTC
Vent 5 kt del Sud/Sud-Oest amb ràfegues de 15 kt
Visibilitat: 6000 m

TAF: OPGD 211530Z 2118/2218 23007KT 4000 NSC TEMPO 2200/2204 VRB02KT 2000 BR SCT020 FM220600 21005G15KT 6000 NSC

Observacions i pronòstics meteorològics de més de 4000 aeroports (METAR i TAF).

Les estacions disponibles són els punts grocs i vermells al mapa.

Posi el ratolí al punt desitjat per veure el nom de l'estació.

Feu clic per veure les observacions i els pronòstics meteorològics.

Per canviar el mapa: feu clic els botons verds amb una creu de color negre per apropar; al botó verd amb un guió per allunyar la imatge; o en les fletxes verdes per a mapes adjacents.


METAR-TAF: